METAR Data
IDs: Format: Raw Decoded Include TAF

Data at: 0712 UTC 01 Aug 2021

EDVE 010650Z 28007KT 240V300 9999 FEW016 18/14 Q1008